createdAt,value
2023-01-13T00:00:09.123Z,62.78
2023-01-13T00:00:21.543Z,63.10
2023-01-13T00:00:33.635Z,63.14
2023-01-13T00:00:45.872Z,62.81
2023-01-13T00:00:58.192Z,63.24
2023-01-13T00:01:15.945Z,63.43
2023-01-13T00:01:28.915Z,63.24
2023-01-13T00:01:40.921Z,63.59
2023-01-13T00:01:52.800Z,63.62
2023-01-13T00:02:04.796Z,63.54
2023-01-13T00:02:17.167Z,63.51
2023-01-13T00:02:29.890Z,63.52
2023-01-13T00:02:41.960Z,63.80
2023-01-13T00:02:53.879Z,63.54
2023-01-13T00:03:05.987Z,63.78
2023-01-13T00:03:17.954Z,63.71
2023-01-13T00:03:29.975Z,63.63
2023-01-13T00:03:42.025Z,63.23
2023-01-13T00:03:53.922Z,63.36
2023-01-13T00:04:05.840Z,63.39
2023-01-13T00:04:17.775Z,63.20
2023-01-13T00:04:29.756Z,63.10
2023-01-13T00:04:41.680Z,63.02
2023-01-13T00:04:53.702Z,63.09
2023-01-13T00:05:06.066Z,63.03
2023-01-13T00:05:18.262Z,63.27
2023-01-13T00:05:30.325Z,63.58
2023-01-13T00:05:42.215Z,63.10
2023-01-13T00:05:54.154Z,63.25
2023-01-13T00:06:08.328Z,63.35
2023-01-13T00:06:25.655Z,63.45
2023-01-13T00:06:37.528Z,63.28
2023-01-13T00:06:49.405Z,63.22
2023-01-13T00:07:01.353Z,63.14
2023-01-13T00:07:13.244Z,62.83
2023-01-13T00:07:25.126Z,62.96
2023-01-13T00:07:39.983Z,62.66
2023-01-13T00:07:52.180Z,62.45
2023-01-13T00:08:06.235Z,62.59
2023-01-13T00:08:18.124Z,63.26
2023-01-13T00:08:30.296Z,63.17
2023-01-13T00:08:42.480Z,63.02
2023-01-13T00:08:54.965Z,63.15
2023-01-13T00:09:06.895Z,63.11
2023-01-13T00:09:18.803Z,62.63
2023-01-13T00:09:33.004Z,62.70
2023-01-13T00:09:44.953Z,62.73
2023-01-13T00:09:56.853Z,62.85
2023-01-13T00:10:10.760Z,63.41
2023-01-13T00:10:22.637Z,63.35
2023-01-13T00:10:35.817Z,63.29
2023-01-13T00:10:48.296Z,63.39
2023-01-13T00:11:00.279Z,62.83
2023-01-13T00:11:12.315Z,62.69
2023-01-13T00:11:26.200Z,62.60
2023-01-13T00:11:38.127Z,62.79
2023-01-13T00:11:49.991Z,62.41
2023-01-13T00:12:01.949Z,62.88
2023-01-13T00:12:13.906Z,62.86
2023-01-13T00:12:25.884Z,62.45
2023-01-13T00:12:42.010Z,62.56
2023-01-13T00:12:53.993Z,62.93
2023-01-13T00:13:05.960Z,62.53
2023-01-13T00:13:26.362Z,62.88
2023-01-13T00:13:38.750Z,63.02
2023-01-13T00:13:50.659Z,63.00
2023-01-13T00:14:02.594Z,62.93
2023-01-13T00:14:14.514Z,63.19
2023-01-13T00:15:06.097Z,63.15
2023-01-13T00:15:21.469Z,63.27
2023-01-13T00:16:05.296Z,62.96
2023-01-13T00:16:49.707Z,62.46
2023-01-13T00:17:03.236Z,62.91
2023-01-13T00:17:15.145Z,63.02
2023-01-13T00:17:27.041Z,63.20
2023-01-13T00:17:39.488Z,63.26
2023-01-13T00:17:51.643Z,63.17
2023-01-13T00:18:03.634Z,62.92
2023-01-13T00:18:15.605Z,63.06
2023-01-13T00:18:28.379Z,63.19
2023-01-13T00:18:40.259Z,63.26
2023-01-13T00:18:52.176Z,62.89
2023-01-13T00:19:04.065Z,62.77
2023-01-13T00:19:15.965Z,63.48
2023-01-13T00:19:28.310Z,63.41
2023-01-13T00:19:40.229Z,62.95
2023-01-13T00:19:52.217Z,63.38
2023-01-13T00:20:04.970Z,63.49
2023-01-13T00:20:17.487Z,63.60
2023-01-13T00:20:29.431Z,63.74
2023-01-13T00:20:41.348Z,64.10
2023-01-13T00:21:00.958Z,63.83
2023-01-13T00:21:21.570Z,64.36
2023-01-13T00:21:33.546Z,63.91
2023-01-13T00:21:45.413Z,64.22
2023-01-13T00:21:57.395Z,64.22
2023-01-13T00:22:09.297Z,64.01
2023-01-13T00:22:21.224Z,64.37
2023-01-13T00:22:34.938Z,64.21
2023-01-13T00:22:52.756Z,63.89
2023-01-13T00:23:04.684Z,64.36
2023-01-13T00:23:16.623Z,64.53
2023-01-13T00:23:31.070Z,64.66
2023-01-13T00:23:43.691Z,64.48
2023-01-13T00:23:55.879Z,64.66
2023-01-13T00:24:07.843Z,63.79
2023-01-13T00:24:19.769Z,63.56
2023-01-13T00:24:31.654Z,63.92
2023-01-13T00:24:43.610Z,64.29
2023-01-13T00:24:58.093Z,64.33
2023-01-13T00:25:10.079Z,64.29
2023-01-13T00:25:22.242Z,64.12
2023-01-13T00:25:34.134Z,63.90
2023-01-13T00:25:45.999Z,63.86
2023-01-13T00:25:59.491Z,64.08
2023-01-13T00:26:20.188Z,63.98
2023-01-13T00:26:35.661Z,63.80
2023-01-13T00:26:47.613Z,64.00
2023-01-13T00:26:59.502Z,64.07
2023-01-13T00:27:11.407Z,63.76
2023-01-13T00:27:24.898Z,64.00
2023-01-13T00:27:36.996Z,64.01
2023-01-13T00:27:48.922Z,64.18
2023-01-13T00:28:00.830Z,64.03
2023-01-13T00:28:12.723Z,64.27
2023-01-13T00:28:25.173Z,64.01
2023-01-13T00:28:37.216Z,63.52
2023-01-13T00:28:49.983Z,63.50
2023-01-13T00:29:02.245Z,63.54
2023-01-13T00:29:14.259Z,63.94
2023-01-13T00:29:26.262Z,63.60
2023-01-13T00:29:38.146Z,63.75
2023-01-13T00:29:50.036Z,63.38
2023-01-13T00:30:02.589Z,64.04
2023-01-13T00:30:14.815Z,64.12
2023-01-13T00:30:26.740Z,63.89
2023-01-13T00:30:38.609Z,64.64
2023-01-13T00:30:50.816Z,64.33
2023-01-13T00:31:21.167Z,64.24
2023-01-13T00:31:33.329Z,64.05
2023-01-13T00:31:45.396Z,64.36
2023-01-13T00:31:58.101Z,64.58
2023-01-13T00:32:10.050Z,64.80
2023-01-13T00:32:21.971Z,64.76
2023-01-13T00:32:33.948Z,64.66
2023-01-13T00:32:45.854Z,64.52
2023-01-13T00:32:57.789Z,64.79
2023-01-13T00:33:09.707Z,64.64
2023-01-13T00:33:21.766Z,64.37
2023-01-13T00:33:34.082Z,64.46
2023-01-13T00:33:46.544Z,64.46
2023-01-13T00:34:00.420Z,64.73
2023-01-13T00:34:12.597Z,64.44
2023-01-13T00:34:24.606Z,64.44
2023-01-13T00:34:36.586Z,64.41
2023-01-13T00:34:48.489Z,64.29
2023-01-13T00:35:00.460Z,64.29
2023-01-13T00:35:12.459Z,64.35
2023-01-13T00:35:24.405Z,64.64
2023-01-13T00:35:36.408Z,64.55
2023-01-13T00:35:58.647Z,64.85
2023-01-13T00:36:14.771Z,64.38
2023-01-13T00:36:27.816Z,64.64
2023-01-13T00:36:40.104Z,64.67
2023-01-13T00:36:52.175Z,64.78
2023-01-13T00:37:04.160Z,64.63
2023-01-13T00:37:16.294Z,64.64
2023-01-13T00:37:28.310Z,64.79
2023-01-13T00:37:41.066Z,64.63
2023-01-13T00:37:52.984Z,64.81
2023-01-13T00:38:04.880Z,65.21
2023-01-13T00:38:16.776Z,65.48
2023-01-13T00:38:31.312Z,65.52
2023-01-13T00:38:43.987Z,65.45
2023-01-13T00:38:56.082Z,65.47
2023-01-13T00:39:08.903Z,65.46
2023-01-13T00:39:23.384Z,65.60
2023-01-13T00:39:35.496Z,65.67
2023-01-13T00:39:47.706Z,65.87
2023-01-13T00:40:00.473Z,65.30
2023-01-13T00:40:12.613Z,65.51
2023-01-13T00:40:24.494Z,65.52
2023-01-13T00:40:36.839Z,65.68
2023-01-13T00:41:02.456Z,65.43
2023-01-13T00:41:19.877Z,65.58
2023-01-13T00:41:51.818Z,65.71
2023-01-13T00:42:22.292Z,66.13
2023-01-13T00:42:52.664Z,65.51
2023-01-13T00:43:23.146Z,65.75
2023-01-13T00:43:36.436Z,65.75
2023-01-13T00:43:48.844Z,65.81
2023-01-13T00:44:00.958Z,66.24
2023-01-13T00:44:12.857Z,66.08
2023-01-13T00:44:24.799Z,65.85
2023-01-13T00:44:36.817Z,65.76
2023-01-13T00:44:48.730Z,65.57
2023-01-13T00:45:00.696Z,65.94
2023-01-13T00:45:12.600Z,65.47
2023-01-13T00:45:24.705Z,65.51
2023-01-13T00:45:38.458Z,65.49
2023-01-13T00:45:53.219Z,65.50
2023-01-13T00:46:07.835Z,65.49
2023-01-13T00:46:21.493Z,65.43
2023-01-13T00:46:33.636Z,65.71
2023-01-13T00:46:45.596Z,65.49
2023-01-13T00:46:57.548Z,64.98
2023-01-13T00:47:09.607Z,64.75
2023-01-13T00:47:23.208Z,65.13
2023-01-13T00:47:35.144Z,64.87
2023-01-13T00:47:47.181Z,65.34
2023-01-13T00:47:59.291Z,65.57
2023-01-13T00:48:11.207Z,66.08
2023-01-13T00:48:24.692Z,65.79
2023-01-13T00:48:37.802Z,65.84
2023-01-13T00:48:49.787Z,65.84
2023-01-13T00:49:01.723Z,65.83
2023-01-13T00:49:13.646Z,65.40
2023-01-13T00:49:25.547Z,65.47
2023-01-13T00:49:37.463Z,65.09
2023-01-13T00:49:50.077Z,65.56
2023-01-13T00:50:02.056Z,65.21
2023-01-13T00:50:14.021Z,65.73
2023-01-13T00:50:26.880Z,65.31
2023-01-13T00:50:38.760Z,65.39
2023-01-13T00:51:09.999Z,65.45
2023-01-13T00:51:22.045Z,65.35
2023-01-13T00:51:33.984Z,65.61
2023-01-13T00:51:46.015Z,65.54
2023-01-13T00:51:57.973Z,65.59
2023-01-13T00:52:10.131Z,65.56
2023-01-13T00:52:22.211Z,65.52
2023-01-13T00:52:34.333Z,65.24
2023-01-13T00:52:46.537Z,65.11
2023-01-13T00:53:02.108Z,65.33
2023-01-13T00:53:14.752Z,64.87
2023-01-13T00:53:28.704Z,64.96
2023-01-13T00:53:43.198Z,65.50
2023-01-13T00:53:55.096Z,65.65
2023-01-13T00:54:07.750Z,65.81
2023-01-13T00:54:19.634Z,65.36
2023-01-13T00:54:31.597Z,65.63
2023-01-13T00:54:43.522Z,65.20
2023-01-13T00:54:55.474Z,65.45
2023-01-13T00:55:07.735Z,65.15
2023-01-13T00:55:19.653Z,65.15
2023-01-13T00:55:35.462Z,65.64
2023-01-13T00:55:47.371Z,65.06
2023-01-13T00:56:05.475Z,64.87
2023-01-13T00:56:30.565Z,64.90
2023-01-13T00:56:50.782Z,64.82
2023-01-13T00:57:04.560Z,64.89
2023-01-13T00:57:16.522Z,64.78
2023-01-13T00:57:28.862Z,65.25
2023-01-13T00:57:40.746Z,64.77
2023-01-13T00:57:52.634Z,64.45
2023-01-13T00:58:04.608Z,64.29
2023-01-13T00:58:16.523Z,64.71
2023-01-13T00:58:30.904Z,64.37
2023-01-13T00:58:44.236Z,64.41
2023-01-13T00:58:58.619Z,64.58
2023-01-13T00:59:12.645Z,64.48
2023-01-13T00:59:24.739Z,64.59
2023-01-13T00:59:36.621Z,65.02
2023-01-13T00:59:49.609Z,64.51
2023-01-13T01:00:01.872Z,64.87
2023-01-13T01:00:14.548Z,64.87
2023-01-13T01:00:26.419Z,65.08
2023-01-13T01:00:38.822Z,64.69
2023-01-13T01:00:50.782Z,64.75
2023-01-13T01:01:05.864Z,64.79
2023-01-13T01:01:22.135Z,64.47
2023-01-13T01:01:34.355Z,64.37
2023-01-13T01:01:46.589Z,64.08
2023-01-13T01:01:59.024Z,64.17
2023-01-13T01:02:11.300Z,64.09
2023-01-13T01:02:23.367Z,64.05
2023-01-13T01:02:35.411Z,63.80
2023-01-13T01:02:47.424Z,64.40
2023-01-13T01:02:59.413Z,64.65
2023-01-13T01:03:12.284Z,64.64
2023-01-13T01:03:24.301Z,64.29
2023-01-13T01:03:36.911Z,64.63
2023-01-13T01:03:50.295Z,64.50
2023-01-13T01:04:02.167Z,64.74
2023-01-13T01:04:14.061Z,64.64
2023-01-13T01:04:26.271Z,64.61
2023-01-13T01:04:38.291Z,64.26
2023-01-13T01:04:50.253Z,64.54
2023-01-13T01:05:02.536Z,64.47
2023-01-13T01:05:27.476Z,64.51
2023-01-13T01:05:39.807Z,64.74
2023-01-13T01:05:51.674Z,64.53
2023-01-13T01:06:06.268Z,64.21
2023-01-13T01:06:21.003Z,64.13
2023-01-13T01:06:32.988Z,64.08
2023-01-13T01:06:44.919Z,64.28
2023-01-13T01:06:56.800Z,64.10
2023-01-13T01:07:08.786Z,64.65
2023-01-13T01:07:20.675Z,64.09
2023-01-13T01:07:32.561Z,63.98
2023-01-13T01:07:44.443Z,64.78
2023-01-13T01:07:56.333Z,64.74
2023-01-13T01:08:08.217Z,64.39
2023-01-13T01:08:20.114Z,64.71
2023-01-13T01:08:32.132Z,64.77
2023-01-13T01:08:45.141Z,64.89
2023-01-13T01:08:57.339Z,64.96
2023-01-13T01:09:13.090Z,64.69
2023-01-13T01:09:32.399Z,64.60
2023-01-13T01:09:44.312Z,64.17
2023-01-13T01:09:56.191Z,64.44
2023-01-13T01:10:08.920Z,64.90
2023-01-13T01:10:21.001Z,64.93
2023-01-13T01:10:32.929Z,64.57
2023-01-13T01:10:44.862Z,64.93
2023-01-13T01:11:04.644Z,65.08
2023-01-13T01:11:19.595Z,64.87
2023-01-13T01:11:33.370Z,65.05
2023-01-13T01:11:45.291Z,64.91
2023-01-13T01:11:57.183Z,64.88
2023-01-13T01:12:09.064Z,64.53
2023-01-13T01:12:20.976Z,65.18
2023-01-13T01:12:37.059Z,65.11
2023-01-13T01:12:50.787Z,65.17
2023-01-13T01:13:02.702Z,65.18
2023-01-13T01:13:17.248Z,65.18
2023-01-13T01:13:29.297Z,65.50
2023-01-13T01:13:41.959Z,65.14
2023-01-13T01:13:55.813Z,65.01
2023-01-13T01:14:11.361Z,64.71
2023-01-13T01:14:23.325Z,64.94
2023-01-13T01:14:35.341Z,64.96
2023-01-13T01:14:47.321Z,65.36
2023-01-13T01:14:59.222Z,65.18
2023-01-13T01:15:11.528Z,65.17
2023-01-13T01:15:23.594Z,65.79
2023-01-13T01:15:40.072Z,65.55
2023-01-13T01:15:52.013Z,65.76
2023-01-13T01:16:12.713Z,65.58
2023-01-13T01:16:27.035Z,65.66
2023-01-13T01:16:40.487Z,66.12
2023-01-13T01:16:53.223Z,66.15
2023-01-13T01:17:05.100Z,66.16
2023-01-13T01:17:17.246Z,66.16
2023-01-13T01:17:29.274Z,65.99
2023-01-13T01:17:41.309Z,66.06
2023-01-13T01:17:53.338Z,66.37
2023-01-13T01:18:05.417Z,66.45
2023-01-13T01:18:17.462Z,66.29
2023-01-13T01:18:29.513Z,66.53
2023-01-13T01:18:45.327Z,66.60
2023-01-13T01:18:57.917Z,66.80
2023-01-13T01:19:10.483Z,66.52
2023-01-13T01:19:22.865Z,66.48
2023-01-13T01:19:37.457Z,66.15
2023-01-13T01:19:50.218Z,66.23
2023-01-13T01:20:03.742Z,66.46
2023-01-13T01:20:16.079Z,66.41
2023-01-13T01:20:28.202Z,66.86
2023-01-13T01:20:40.281Z,66.63
2023-01-13T01:20:52.285Z,66.55
2023-01-13T01:21:05.405Z,66.65
2023-01-13T01:21:18.294Z,66.91
2023-01-13T01:21:30.583Z,66.60
2023-01-13T01:21:45.399Z,66.77
2023-01-13T01:21:57.420Z,67.28
2023-01-13T01:22:09.511Z,67.38
2023-01-13T01:22:21.580Z,67.24
2023-01-13T01:22:33.660Z,67.68
2023-01-13T01:22:45.680Z,67.34
2023-01-13T01:22:57.701Z,67.43
2023-01-13T01:23:09.736Z,67.03
2023-01-13T01:23:21.762Z,67.40
2023-01-13T01:23:35.059Z,67.48
2023-01-13T01:23:47.178Z,67.48
2023-01-13T01:24:01.237Z,67.89
2023-01-13T01:24:16.673Z,67.77
2023-01-13T01:24:28.729Z,67.69
2023-01-13T01:24:40.775Z,67.70
2023-01-13T01:24:52.856Z,67.58
2023-01-13T01:25:05.465Z,67.38
2023-01-13T01:25:17.481Z,66.94
2023-01-13T01:25:29.528Z,67.18
2023-01-13T01:25:41.549Z,67.54
2023-01-13T01:25:53.675Z,67.56
2023-01-13T01:26:08.927Z,67.34
2023-01-13T01:26:23.830Z,67.66
2023-01-13T01:26:35.925Z,67.75
2023-01-13T01:26:47.962Z,67.58
2023-01-13T01:27:00.020Z,67.81
2023-01-13T01:27:12.042Z,67.89
2023-01-13T01:27:24.125Z,67.71
2023-01-13T01:27:36.147Z,67.80
2023-01-13T01:27:48.194Z,67.87
2023-01-13T01:28:00.585Z,67.68
2023-01-13T01:28:12.622Z,67.77
2023-01-13T01:28:24.662Z,67.55
2023-01-13T01:28:36.674Z,67.77
2023-01-13T01:28:49.208Z,67.55
2023-01-13T01:29:02.182Z,67.62
2023-01-13T01:29:17.902Z,67.38
2023-01-13T01:29:29.876Z,67.41
2023-01-13T01:29:41.744Z,67.55
2023-01-13T01:29:56.720Z,67.77
2023-01-13T01:30:09.137Z,67.93
2023-01-13T01:30:21.029Z,67.82
2023-01-13T01:30:33.028Z,67.96
2023-01-13T01:30:44.960Z,67.65
2023-01-13T01:30:58.429Z,67.94
2023-01-13T01:31:14.341Z,67.93
2023-01-13T01:31:32.795Z,67.63
2023-01-13T01:31:44.970Z,67.70
2023-01-13T01:31:58.261Z,68.32
2023-01-13T01:32:10.121Z,68.19
2023-01-13T01:32:21.988Z,68.47
2023-01-13T01:32:34.856Z,69.27
2023-01-13T01:32:46.731Z,69.40
2023-01-13T01:32:58.602Z,69.34
2023-01-13T01:33:10.474Z,69.10
2023-01-13T01:33:22.381Z,69.34
2023-01-13T01:33:34.323Z,69.44
2023-01-13T01:33:47.679Z,69.42
2023-01-13T01:34:01.513Z,70.09
2023-01-13T01:34:13.896Z,69.87
2023-01-13T01:34:25.868Z,70.43
2023-01-13T01:34:39.113Z,70.67
2023-01-13T01:34:51.847Z,70.77
2023-01-13T01:35:04.787Z,70.82
2023-01-13T01:35:16.935Z,70.72
2023-01-13T01:35:28.836Z,70.61
2023-01-13T01:35:41.187Z,71.15
2023-01-13T01:35:54.636Z,71.08
2023-01-13T01:36:07.621Z,71.39
2023-01-13T01:36:21.154Z,71.34
2023-01-13T01:36:34.820Z,71.64
2023-01-13T01:36:46.847Z,72.07
2023-01-13T01:36:58.868Z,71.67
2023-01-13T01:37:10.787Z,71.71
2023-01-13T01:37:22.664Z,71.42
2023-01-13T01:37:34.612Z,71.48
2023-01-13T01:37:46.797Z,71.75
2023-01-13T01:37:58.871Z,71.62
2023-01-13T01:38:10.885Z,71.92
2023-01-13T01:38:23.380Z,71.47
2023-01-13T01:38:35.451Z,71.33
2023-01-13T01:38:48.779Z,71.77
2023-01-13T01:39:00.890Z,72.23
2023-01-13T01:39:12.879Z,72.15
2023-01-13T01:39:24.842Z,71.56
2023-01-13T01:39:36.771Z,71.56
2023-01-13T01:39:48.946Z,71.54
2023-01-13T01:40:00.969Z,71.86
2023-01-13T01:40:13.221Z,71.38
2023-01-13T01:40:27.468Z,71.81
2023-01-13T01:40:39.401Z,72.04
2023-01-13T01:40:51.473Z,72.15
2023-01-13T01:41:03.462Z,72.05
2023-01-13T01:41:20.863Z,72.17
2023-01-13T01:41:34.793Z,72.89
2023-01-13T01:42:06.666Z,72.57
2023-01-13T01:42:37.524Z,73.15
2023-01-13T01:43:07.812Z,73.36
2023-01-13T01:43:41.174Z,72.82
2023-01-13T01:44:19.134Z,73.15
2023-01-13T01:44:43.129Z,73.45
2023-01-13T01:45:13.554Z,73.67
2023-01-13T01:45:27.752Z,73.11
2023-01-13T01:45:39.651Z,73.06
2023-01-13T01:45:52.551Z,72.56
2023-01-13T01:46:05.028Z,72.92
2023-01-13T01:46:17.322Z,72.71
2023-01-13T01:46:38.258Z,72.70
2023-01-13T01:46:50.383Z,72.50
2023-01-13T01:47:02.509Z,72.56
2023-01-13T01:47:19.732Z,72.66
2023-01-13T01:47:32.524Z,72.90
2023-01-13T01:47:48.205Z,72.93
2023-01-13T01:48:04.338Z,72.80
2023-01-13T01:48:16.281Z,72.58
2023-01-13T01:48:37.045Z,72.59
2023-01-13T01:48:49.018Z,72.04
2023-01-13T01:49:20.613Z,71.54
2023-01-13T01:49:35.208Z,71.67
2023-01-13T01:49:48.148Z,71.69
2023-01-13T01:50:02.049Z,71.94
2023-01-13T01:50:14.721Z,71.69
2023-01-13T01:50:28.218Z,72.04
2023-01-13T01:50:40.813Z,71.91
2023-01-13T01:50:53.169Z,71.97
2023-01-13T01:51:08.717Z,71.84
2023-01-13T01:51:21.434Z,72.30
2023-01-13T01:51:38.954Z,72.16
2023-01-13T01:51:56.558Z,71.95
2023-01-13T01:52:29.979Z,72.31
2023-01-13T01:52:47.372Z,71.96
2023-01-13T01:53:10.922Z,72.14
2023-01-13T01:53:25.762Z,72.63
2023-01-13T01:53:39.208Z,72.50
2023-01-13T01:53:52.681Z,72.73
2023-01-13T01:54:09.153Z,72.47
2023-01-13T01:54:35.555Z,72.42
2023-01-13T01:54:54.741Z,72.20
2023-01-13T01:55:30.303Z,72.21
2023-01-13T01:55:42.420Z,71.77
2023-01-13T01:55:56.097Z,72.33
2023-01-13T01:56:10.332Z,71.96
2023-01-13T01:56:22.365Z,72.12
2023-01-13T01:56:35.789Z,72.35
2023-01-13T01:56:48.419Z,72.91
2023-01-13T01:57:00.515Z,72.93
2023-01-13T01:57:18.103Z,73.09
2023-01-13T01:57:48.529Z,73.65
2023-01-13T01:58:18.478Z,74.13
2023-01-13T01:58:40.398Z,74.35
2023-01-13T01:58:54.083Z,74.71
2023-01-13T01:59:09.009Z,74.72
2023-01-13T01:59:20.991Z,74.93
2023-01-13T01:59:36.437Z,75.35
2023-01-13T01:59:49.089Z,75.32
2023-01-13T02:00:01.813Z,75.27
2023-01-13T02:00:14.844Z,75.01
2023-01-13T02:00:28.344Z,75.38
2023-01-13T02:00:40.706Z,75.67
2023-01-13T02:00:55.780Z,75.78
2023-01-13T02:01:08.714Z,76.32
2023-01-13T02:01:20.976Z,76.17
2023-01-13T02:01:34.264Z,76.03
2023-01-13T02:01:46.372Z,76.31
2023-01-13T02:01:58.637Z,76.21
2023-01-13T02:02:11.257Z,76.12
2023-01-13T02:02:23.393Z,75.71
2023-01-13T02:02:36.387Z,75.64
2023-01-13T02:02:51.314Z,75.77
2023-01-13T02:03:05.390Z,76.12
2023-01-13T02:03:18.407Z,76.59
2023-01-13T02:03:30.481Z,76.28
2023-01-13T02:03:52.447Z,76.02
2023-01-13T02:04:16.879Z,76.15
2023-01-13T02:04:33.788Z,76.13
2023-01-13T02:04:51.002Z,76.21
2023-01-13T02:05:03.375Z,76.16
2023-01-13T02:05:15.545Z,76.03
2023-01-13T02:05:29.653Z,76.19
2023-01-13T02:05:42.113Z,76.51
2023-01-13T02:05:54.089Z,75.79
2023-01-13T02:06:06.558Z,76.00
2023-01-13T02:06:18.932Z,76.07
2023-01-13T02:06:31.202Z,76.55
2023-01-13T02:06:45.772Z,76.58
2023-01-13T02:07:01.316Z,76.73
2023-01-13T02:07:13.226Z,76.44
2023-01-13T02:07:28.646Z,76.12
2023-01-13T02:07:43.005Z,76.10
2023-01-13T02:07:57.627Z,76.01
2023-01-13T02:08:13.128Z,75.51
2023-01-13T02:08:26.019Z,75.94
2023-01-13T02:08:40.139Z,75.76
2023-01-13T02:08:52.180Z,75.71
2023-01-13T02:09:04.144Z,75.91
2023-01-13T02:09:17.442Z,75.93
2023-01-13T02:09:30.285Z,75.97
2023-01-13T02:09:42.274Z,75.83
2023-01-13T02:09:56.312Z,75.87
2023-01-13T02:10:11.803Z,75.92
2023-01-13T02:10:27.583Z,75.74
2023-01-13T02:10:41.336Z,75.87
2023-01-13T02:10:53.815Z,75.90
2023-01-13T02:11:26.419Z,75.74
2023-01-13T02:11:56.735Z,75.75
2023-01-13T02:12:27.724Z,75.50
2023-01-13T02:12:42.635Z,75.80
2023-01-13T02:12:58.872Z,75.78
2023-01-13T02:13:13.101Z,75.77
2023-01-13T02:13:25.044Z,75.67
2023-01-13T02:13:36.970Z,76.20
2023-01-13T02:13:51.082Z,76.15
2023-01-13T02:14:03.017Z,75.94
2023-01-13T02:14:15.348Z,76.13
2023-01-13T02:14:29.842Z,75.96
2023-01-13T02:14:42.402Z,75.56
2023-01-13T02:14:57.792Z,75.56
2023-01-13T02:15:11.946Z,75.32
2023-01-13T02:15:38.310Z,75.43
2023-01-13T02:16:13.056Z,74.68
2023-01-13T02:16:25.081Z,73.95
2023-01-13T02:16:39.199Z,74.41
2023-01-13T02:17:16.340Z,74.19
2023-01-13T02:17:43.079Z,74.40
2023-01-13T02:18:18.856Z,74.13
2023-01-13T02:18:43.626Z,73.63
2023-01-13T02:19:23.195Z,73.34
2023-01-13T02:19:53.024Z,73.06
2023-01-13T02:20:25.803Z,73.13
2023-01-13T02:20:43.552Z,73.44
2023-01-13T02:21:17.023Z,73.46
2023-01-13T02:21:48.061Z,73.47
2023-01-13T02:22:13.031Z,73.32
2023-01-13T02:22:27.728Z,73.34
2023-01-13T02:22:46.053Z,73.49
2023-01-13T02:23:00.852Z,73.27
2023-01-13T02:23:51.167Z,73.23
2023-01-13T02:24:37.842Z,72.81
2023-01-13T02:25:10.826Z,72.69
2023-01-13T02:26:00.045Z,72.35
2023-01-13T02:26:39.678Z,72.46
2023-01-13T02:27:21.919Z,72.52
2023-01-13T02:27:50.945Z,72.45
2023-01-13T02:28:12.292Z,71.75
2023-01-13T02:28:36.214Z,72.07
2023-01-13T02:29:41.526Z,71.83
2023-01-13T02:30:21.586Z,71.33
2023-01-13T02:30:59.253Z,71.61
2023-01-13T02:31:34.166Z,71.73
2023-01-13T02:31:49.409Z,71.49
2023-01-13T02:32:35.678Z,71.58
2023-01-13T02:33:28.045Z,71.67
2023-01-13T02:34:01.591Z,72.57
2023-01-13T02:34:25.120Z,72.20
2023-01-13T02:34:42.879Z,72.12
2023-01-13T02:35:37.748Z,71.88
2023-01-13T02:36:02.571Z,72.04
2023-01-13T02:36:29.805Z,71.32
2023-01-13T02:36:47.553Z,71.50
2023-01-13T02:37:07.649Z,71.30
2023-01-13T02:37:29.836Z,71.60
2023-01-13T02:37:43.981Z,71.51
2023-01-13T02:37:59.592Z,71.71
2023-01-13T02:38:13.831Z,71.36
2023-01-13T02:38:34.584Z,70.96
2023-01-13T02:38:52.213Z,70.79
2023-01-13T02:39:16.965Z,70.65
2023-01-13T02:39:37.098Z,70.54
2023-01-13T02:39:59.480Z,70.76
2023-01-13T02:40:31.522Z,70.44
2023-01-13T02:40:58.436Z,70.34
2023-01-13T02:41:40.447Z,70.18
2023-01-13T02:42:32.719Z,70.31
2023-01-13T02:43:15.429Z,70.65
2023-01-13T02:43:54.987Z,70.69
2023-01-13T02:44:10.533Z,70.62
2023-01-13T02:44:32.447Z,70.57
2023-01-13T02:44:49.774Z,70.75
2023-01-13T02:45:09.810Z,70.95
2023-01-13T02:45:30.655Z,70.78
2023-01-13T02:46:01.686Z,70.71
2023-01-13T02:46:29.944Z,71.21
2023-01-13T02:46:59.349Z,71.15
2023-01-13T02:47:22.659Z,70.60
2023-01-13T02:47:39.292Z,70.77
2023-01-13T02:47:55.758Z,70.52
2023-01-13T02:48:10.829Z,71.10
2023-01-13T02:48:25.299Z,70.72
2023-01-13T02:48:39.657Z,70.70
2023-01-13T02:48:54.681Z,71.21
2023-01-13T02:49:13.792Z,70.97
2023-01-13T02:49:37.677Z,70.95
2023-01-13T02:49:55.803Z,70.77
2023-01-13T02:50:21.342Z,70.97
2023-01-13T02:50:40.931Z,71.17
2023-01-13T02:51:09.706Z,70.78
2023-01-13T02:51:26.800Z,70.64
2023-01-13T02:51:40.935Z,70.66
2023-01-13T02:52:00.078Z,70.53
2023-01-13T02:52:25.437Z,70.37
2023-01-13T02:52:45.724Z,70.48
2023-01-13T02:53:07.588Z,69.89
2023-01-13T02:53:29.215Z,70.27
2023-01-13T02:53:44.024Z,70.41
2023-01-13T02:54:04.649Z,70.76
2023-01-13T02:54:22.485Z,70.91
2023-01-13T02:54:37.283Z,70.90
2023-01-13T02:54:55.291Z,70.76
2023-01-13T02:55:50.783Z,71.05
2023-01-13T02:56:06.325Z,70.65
2023-01-13T02:56:20.814Z,70.94
2023-01-13T02:56:37.316Z,71.33
2023-01-13T02:56:51.092Z,71.54
2023-01-13T02:57:06.549Z,71.54
2023-01-13T02:57:20.792Z,71.53
2023-01-13T02:57:35.579Z,71.29
2023-01-13T02:57:48.541Z,71.06
2023-01-13T02:58:04.145Z,71.60
2023-01-13T02:58:21.109Z,71.59
2023-01-13T02:58:36.195Z,71.27
2023-01-13T02:58:49.046Z,71.86
2023-01-13T02:59:02.180Z,71.46
2023-01-13T02:59:14.363Z,72.01
2023-01-13T02:59:27.817Z,72.05
2023-01-13T02:59:41.388Z,71.59
2023-01-13T02:59:55.557Z,72.04
2023-01-13T03:00:10.519Z,71.62
2023-01-13T03:00:23.384Z,71.27
2023-01-13T03:00:37.439Z,71.50
2023-01-13T03:00:50.072Z,71.47
2023-01-13T03:01:04.849Z,71.34
2023-01-13T03:01:17.903Z,71.19
2023-01-13T03:01:29.974Z,71.36
2023-01-13T03:01:45.194Z,71.08
2023-01-13T03:02:00.135Z,71.05
2023-01-13T03:02:16.546Z,71.00
2023-01-13T03:02:28.807Z,70.83
2023-01-13T03:02:40.820Z,71.07
2023-01-13T03:02:52.918Z,71.26
2023-01-13T03:03:04.937Z,71.24
2023-01-13T03:03:16.891Z,70.74
2023-01-13T03:03:29.048Z,70.73
2023-01-13T03:03:40.995Z,70.78
2023-01-13T03:03:53.016Z,71.27
2023-01-13T03:04:15.695Z,70.99
2023-01-13T03:04:49.181Z,71.27
2023-01-13T03:05:03.349Z,71.54
2023-01-13T03:05:16.814Z,71.52
2023-01-13T03:05:31.968Z,71.31
2023-01-13T03:05:46.333Z,71.00
2023-01-13T03:06:18.321Z,70.91
2023-01-13T03:07:00.724Z,71.13
2023-01-13T03:07:19.502Z,71.43
2023-01-13T03:07:53.495Z,71.31
2023-01-13T03:08:22.269Z,71.57
2023-01-13T03:08:57.460Z,71.94
2023-01-13T03:09:22.769Z,71.44
2023-01-13T03:09:42.950Z,71.63
2023-01-13T03:10:16.256Z,70.97
2023-01-13T03:10:37.224Z,70.96
2023-01-13T03:11:08.657Z,71.20
2023-01-13T03:11:21.736Z,71.37
2023-01-13T03:11:46.943Z,71.69
2023-01-13T03:12:11.841Z,72.33
2023-01-13T03:12:37.772Z,72.42
2023-01-13T03:12:59.806Z,72.12
2023-01-13T03:13:22.502Z,72.55
2023-01-13T03:14:17.979Z,71.83
2023-01-13T03:14:48.549Z,72.01
2023-01-13T03:15:24.394Z,71.39
2023-01-13T03:15:45.301Z,71.82
2023-01-13T03:16:03.878Z,71.24
2023-01-13T03:16:31.702Z,71.25
2023-01-13T03:17:17.246Z,71.46
2023-01-13T03:17:51.700Z,72.25
2023-01-13T03:18:12.487Z,71.73
2023-01-13T03:18:58.242Z,71.71
2023-01-13T03:19:18.763Z,71.87
2023-01-13T03:20:06.823Z,71.64
2023-01-13T03:20:25.741Z,71.72
2023-01-13T03:20:47.681Z,71.60
2023-01-13T03:21:05.054Z,71.47
2023-01-13T03:21:34.391Z,71.82
2023-01-13T03:22:02.389Z,71.40
2023-01-13T03:22:23.051Z,71.38
2023-01-13T03:22:44.946Z,71.49
2023-01-13T03:23:13.476Z,71.48
2023-01-13T03:23:33.597Z,71.18
2023-01-13T03:24:09.259Z,71.47
2023-01-13T03:24:28.315Z,71.47
2023-01-13T03:24:50.185Z,70.81
2023-01-13T03:25:11.696Z,71.07
2023-01-13T03:25:32.057Z,70.71
2023-01-13T03:26:14.002Z,70.35
2023-01-13T03:26:42.431Z,70.55
2023-01-13T03:27:39.305Z,70.59
2023-01-13T03:28:11.989Z,70.59
2023-01-13T03:28:30.949Z,70.69
2023-01-13T03:28:49.135Z,70.70
2023-01-13T03:29:18.095Z,70.63
2023-01-13T03:29:34.545Z,70.88
2023-01-13T03:29:53.945Z,70.78
2023-01-13T03:30:23.772Z,70.34
2023-01-13T03:30:51.460Z,70.85
2023-01-13T03:31:09.990Z,70.24
2023-01-13T03:31:30.339Z,70.53
2023-01-13T03:31:55.450Z,71.17
2023-01-13T03:32:20.261Z,70.98
2023-01-13T03:32:39.592Z,71.32